Time;durP1;ratioP1;P1;durP2;ratioP2;P2;SDS_P1;SDS_P2;PMS_P1;PMS_P2;Temp;Humidity;BMP_temperature;BMP_pressure;BME280_temperature;BME280_humidity;BME280_pressure;Samples;Min_cycle;Max_cycle;Signal;HPM_P1;HPM_P2
2022/07/24 00:01:21;;;;;;;4.85;3.90;;;16.10;99.90;;;;;;5054984;28;20036;-66
2022/07/24 00:03:46;;;;;;;4.78;3.90;;;16.10;99.90;;;;;;5073194;28;20048;-66
2022/07/24 00:06:12;;;;;;;4.78;4.28;;;16.00;99.90;;;;;;5073131;28;20047;-66
2022/07/24 00:08:38;;;;;;;7.45;4.22;;;16.00;99.90;;;;;;5072642;28;20044;-66
2022/07/24 00:11:04;;;;;;;4.78;4.28;;;16.00;99.90;;;;;;5072738;28;20042;-66
2022/07/24 00:13:29;;;;;;;6.70;4.47;;;15.90;99.90;;;;;;5055177;28;20507;-66
2022/07/24 00:15:55;;;;;;;7.57;4.50;;;16.00;99.90;;;;;;5072678;28;20032;-67
2022/07/24 00:18:20;;;;;;;5.60;4.75;;;15.90;99.90;;;;;;5054888;28;20080;-66
2022/07/24 00:20:46;;;;;;;7.60;4.57;;;15.90;99.90;;;;;;5072591;28;20040;-66
2022/07/24 00:23:12;;;;;;;8.18;4.95;;;15.80;99.90;;;;;;5072753;28;20040;-66
2022/07/24 00:25:37;;;;;;;7.40;4.95;;;15.90;99.90;;;;;;5072616;28;20032;-66
2022/07/24 00:28:03;;;;;;;9.20;5.13;;;15.90;99.90;;;;;;5072539;28;20043;-66
2022/07/24 00:30:29;;;;;;;5.70;4.60;;;15.80;99.90;;;;;;5054368;28;20494;-66
2022/07/24 00:32:54;;;;;;;6.15;4.82;;;15.90;99.90;;;;;;5072749;28;20090;-66
2022/07/24 00:35:20;;;;;;;6.13;4.95;;;15.80;99.90;;;;;;5072734;28;20032;-66
2022/07/24 00:37:48;;;;;;;5.85;5.28;;;15.80;99.90;;;;;;5072533;28;20041;-66
2022/07/24 00:40:15;;;;;;;6.22;4.57;;;15.80;99.90;;;;;;5054145;28;20123;-66
2022/07/24 00:42:41;;;;;;;5.50;4.97;;;15.80;99.90;;;;;;5072170;28;20046;-66
2022/07/24 00:45:08;;;;;;;8.15;5.25;;;15.80;99.90;;;;;;5072207;28;20040;-66
2022/07/24 00:47:33;;;;;;;7.55;4.72;;;15.70;99.90;;;;;;5072130;28;20040;-66
2022/07/24 00:50:00;;;;;;;6.32;5.55;;;15.70;99.90;;;;;;5071881;28;20090;-67
2022/07/24 00:52:26;;;;;;;7.00;5.15;;;15.70;99.90;;;;;;5072106;28;20048;-66
2022/07/24 00:54:52;;;;;;;6.55;5.43;;;15.70;99.90;;;;;;5072158;28;20058;-67
2022/07/24 00:57:17;;;;;;;7.25;5.50;;;15.70;99.90;;;;;;5054443;28;20040;-66
2022/07/24 00:59:43;;;;;;;7.28;5.72;;;15.70;99.90;;;;;;5071596;28;20040;-66
2022/07/24 01:02:09;;;;;;;6.63;5.65;;;15.60;99.90;;;;;;5072273;28;20076;-66
2022/07/24 01:04:34;;;;;;;6.22;4.40;;;15.70;99.90;;;;;;5072039;28;20496;-66
2022/07/24 01:07:00;;;;;;;9.55;4.93;;;15.70;99.90;;;;;;5071742;28;20048;-67
2022/07/24 01:09:26;;;;;;;6.22;5.28;;;15.70;99.90;;;;;;5071721;28;20076;-66
2022/07/24 01:11:52;;;;;;;6.90;5.15;;;15.60;99.90;;;;;;5071849;28;20034;-66
2022/07/24 01:14:18;;;;;;;7.13;5.25;;;15.60;99.90;;;;;;5053290;28;20040;-66
2022/07/24 01:16:43;;;;;;;6.20;4.85;;;15.60;99.90;;;;;;5071818;28;20052;-67
2022/07/24 01:19:09;;;;;;;6.80;4.80;;;15.60;99.90;;;;;;5071899;28;20072;-66
2022/07/24 01:21:35;;;;;;;7.28;5.40;;;15.50;99.90;;;;;;5071609;28;20036;-66
2022/07/24 01:24:00;;;;;;;9.75;5.47;;;15.60;99.90;;;;;;5071690;28;20068;-66
2022/07/24 01:26:26;;;;;;;7.05;4.70;;;15.40;99.90;;;;;;5071748;28;20041;-66
2022/07/24 01:28:52;;;;;;;7.43;5.70;;;15.50;99.90;;;;;;5071472;28;20040;-66
2022/07/24 01:31:18;;;;;;;7.97;5.18;;;15.40;99.90;;;;;;5071644;28;20390;-66
2022/07/24 01:33:44;;;;;;;7.32;5.10;;;15.40;99.90;;;;;;5071769;28;20115;-66
2022/07/24 01:36:09;;;;;;;6.72;5.05;;;15.40;99.90;;;;;;5071739;28;20066;-66
2022/07/24 01:38:35;;;;;;;6.53;4.85;;;15.30;99.90;;;;;;5071715;28;20052;-66
2022/07/24 01:41:01;;;;;;;7.10;5.75;;;15.40;99.90;;;;;;5071302;28;20040;-66
2022/07/24 01:43:26;;;;;;;5.70;5.10;;;15.40;99.90;;;;;;5071283;28;20171;-66
2022/07/24 01:45:52;;;;;;;9.75;5.38;;;15.30;99.90;;;;;;5071495;28;20037;-66
2022/07/24 01:48:18;;;;;;;5.55;5.00;;;15.40;99.90;;;;;;5071627;28;20047;-66
2022/07/24 01:50:43;;;;;;;7.15;4.95;;;15.40;99.90;;;;;;5071158;28;20044;-66
2022/07/24 01:53:09;;;;;;;5.20;4.68;;;15.40;99.90;;;;;;5071300;28;20083;-66
2022/07/24 01:55:34;;;;;;;9.02;5.18;;;15.30;99.90;;;;;;5071531;28;20037;-66
2022/07/24 01:58:00;;;;;;;5.75;5.15;;;15.30;99.90;;;;;;5071362;28;20036;-66
2022/07/24 02:00:26;;;;;;;8.07;6.20;;;15.20;99.90;;;;;;5071045;28;20045;-66
2022/07/24 02:02:51;;;;;;;7.30;6.32;;;15.20;99.90;;;;;;5053406;28;20036;-66
2022/07/24 02:05:17;;;;;;;6.38;4.85;;;15.20;99.90;;;;;;5071522;28;20090;-66
2022/07/24 02:07:43;;;;;;;7.55;5.50;;;15.20;99.90;;;;;;5071446;28;20041;-66
2022/07/24 02:10:12;;;;;;;7.53;5.53;;;15.10;99.90;;;;;;5071123;28;20037;-67
2022/07/24 02:12:38;;;;;;;7.63;5.90;;;15.10;99.90;;;;;;5071221;28;20036;-66
2022/07/24 02:15:04;;;;;;;6.93;5.93;;;15.10;99.90;;;;;;5071669;28;20463;-66
2022/07/24 02:17:30;;;;;;;7.63;5.53;;;15.10;99.90;;;;;;5068913;28;20070;-66
2022/07/24 02:19:55;;;;;;;7.72;6.18;;;15.10;99.90;;;;;;5068435;28;20079;-66
2022/07/24 02:22:21;;;;;;;6.88;5.75;;;15.20;99.90;;;;;;5064154;28;20079;-66
2022/07/24 02:24:46;;;;;;;6.80;6.10;;;15.10;99.90;;;;;;5062879;28;20040;-66
2022/07/24 02:27:12;;;;;;;7.72;5.35;;;15.10;99.90;;;;;;5073821;28;20409;-67
2022/07/24 02:29:39;;;;;;;8.68;5.60;;;15.10;99.90;;;;;;5074879;28;20036;-66
2022/07/24 02:32:05;;;;;;;7.93;5.35;;;15.10;99.90;;;;;;5075174;28;20113;-66
2022/07/24 02:34:31;;;;;;;7.45;5.35;;;15.20;99.90;;;;;;5068482;28;20040;-66
2022/07/24 02:36:56;;;;;;;9.07;6.20;;;15.20;99.90;;;;;;5072524;28;20040;-66
2022/07/24 02:39:22;;;;;;;7.88;5.60;;;15.10;99.90;;;;;;5074479;28;20119;-66
2022/07/24 02:41:48;;;;;;;11.18;5.47;;;15.10;99.90;;;;;;5074565;28;20036;-66
2022/07/24 02:44:13;;;;;;;6.97;5.88;;;15.10;99.90;;;;;;5074495;28;20041;-66
2022/07/24 02:46:39;;;;;;;7.32;6.05;;;15.10;99.90;;;;;;5074728;28;20047;-66
2022/07/24 02:49:04;;;;;;;7.63;6.72;;;15.10;99.90;;;;;;5056520;28;20040;-66
2022/07/24 02:51:30;;;;;;;8.45;5.80;;;15.00;99.90;;;;;;5074293;28;20048;-66
2022/07/24 02:53:55;;;;;;;6.45;5.78;;;15.10;99.90;;;;;;5074370;28;20036;-66
2022/07/24 02:56:21;;;;;;;8.15;6.55;;;15.00;99.90;;;;;;5074295;28;20425;-66
2022/07/24 02:58:47;;;;;;;7.00;5.50;;;15.10;99.90;;;;;;5074531;28;20045;-66
2022/07/24 03:01:13;;;;;;;13.23;6.35;;;15.10;99.90;;;;;;5070496;28;20047;-66
2022/07/24 03:03:38;;;;;;;7.65;6.80;;;15.10;99.90;;;;;;5069497;28;20040;-66
2022/07/24 03:06:04;;;;;;;9.50;6.95;;;15.00;99.90;;;;;;5065869;28;20124;-66
2022/07/24 03:08:30;;;;;;;7.20;6.03;;;15.10;99.90;;;;;;5074062;28;20044;-67
2022/07/24 03:10:56;;;;;;;8.13;6.68;;;15.10;99.90;;;;;;5073714;28;20036;-66
2022/07/24 03:13:21;;;;;;;7.55;6.75;;;15.10;99.90;;;;;;5074345;28;20390;-66
2022/07/24 03:15:47;;;;;;;9.20;6.68;;;15.00;99.90;;;;;;5074173;28;20082;-66
2022/07/24 03:18:12;;;;;;;7.47;5.75;;;15.10;99.90;;;;;;5074108;28;20044;-66
2022/07/24 03:20:38;;;;;;;9.35;7.00;;;15.00;99.90;;;;;;5039158;28;20119;-66
2022/07/24 03:23:03;;;;;;;10.45;6.90;;;15.00;99.90;;;;;;5073887;28;20037;-66
2022/07/24 03:25:29;;;;;;;10.70;6.57;;;15.00;99.90;;;;;;5073812;28;20044;-66
2022/07/24 03:27:55;;;;;;;9.82;6.88;;;15.10;99.90;;;;;;5073796;28;20575;-67
2022/07/24 03:30:20;;;;;;;10.60;7.25;;;15.00;99.90;;;;;;5055483;28;20178;-66
2022/07/24 03:32:46;;;;;;;8.68;7.53;;;14.90;99.90;;;;;;5073736;28;20068;-66
2022/07/24 03:35:12;;;;;;;10.02;6.93;;;15.00;99.90;;;;;;5056045;28;20036;-66
2022/07/24 03:37:37;;;;;;;9.95;8.13;;;15.00;99.90;;;;;;5073188;28;20040;-66
2022/07/24 03:40:04;;;;;;;9.55;6.30;;;14.90;99.90;;;;;;5073330;28;20498;-66
2022/07/24 03:42:30;;;;;;;8.43;7.10;;;15.00;99.90;;;;;;5073486;28;20064;-66
2022/07/24 03:44:55;;;;;;;9.27;6.40;;;14.90;99.90;;;;;;5065214;28;20033;-66
2022/07/24 03:47:21;;;;;;;9.00;7.03;;;15.00;99.90;;;;;;5073369;28;20040;-66
2022/07/24 03:49:46;;;;;;;9.15;6.75;;;15.00;99.90;;;;;;5073211;28;20041;-66
2022/07/24 03:52:12;;;;;;;9.50;6.47;;;15.00;99.90;;;;;;5055427;28;20079;-66
2022/07/24 03:54:38;;;;;;;9.35;6.60;;;15.00;99.90;;;;;;5073149;28;20050;-66
2022/07/24 03:57:04;;;;;;;10.02;6.97;;;15.10;99.90;;;;;;5073495;28;20072;-66
2022/07/24 03:59:29;;;;;;;13.40;7.30;;;15.10;99.90;;;;;;5073066;28;20644;-66
2022/07/24 04:01:55;;;;;;;11.05;7.20;;;15.10;99.90;;;;;;5073543;28;20032;-66
2022/07/24 04:04:20;;;;;;;11.82;7.15;;;15.10;99.90;;;;;;5073172;28;20041;-66
2022/07/24 04:06:46;;;;;;;11.75;7.30;;;15.10;99.90;;;;;;5073150;28;20037;-66
2022/07/24 04:09:12;;;;;;;11.57;7.60;;;15.10;99.90;;;;;;5072857;28;20375;-66
2022/07/24 04:11:38;;;;;;;9.57;6.68;;;15.10;99.90;;;;;;5073309;28;20150;-66
2022/07/24 04:14:04;;;;;;;9.05;6.70;;;15.20;99.90;;;;;;5073191;28;20044;-66
2022/07/24 04:16:30;;;;;;;10.50;7.60;;;15.00;99.90;;;;;;5073290;28;20032;-66
2022/07/24 04:18:55;;;;;;;9.05;6.97;;;15.10;99.90;;;;;;5073427;28;20143;-66
2022/07/24 04:21:21;;;;;;;9.68;7.05;;;15.10;99.90;;;;;;5073054;28;20139;-66
2022/07/24 04:23:46;;;;;;;11.98;7.18;;;15.10;99.90;;;;;;5055744;28;20130;-66
2022/07/24 04:26:12;;;;;;;9.50;7.15;;;15.10;99.90;;;;;;5073755;28;20060;-66
2022/07/24 04:28:38;;;;;;;12.32;7.28;;;15.00;99.90;;;;;;5073179;28;20041;-66
2022/07/24 04:31:04;;;;;;;8.40;7.05;;;15.10;99.90;;;;;;5072523;28;20090;-66
2022/07/24 04:33:30;;;;;;;8.90;6.45;;;15.10;99.90;;;;;;5072617;28;20041;-66
2022/07/24 04:35:55;;;;;;;11.88;6.45;;;15.10;99.90;;;;;;5072600;28;20036;-66
2022/07/24 04:38:21;;;;;;;8.00;6.78;;;15.20;99.90;;;;;;5072535;28;20572;-66
2022/07/24 04:40:46;;;;;;;8.85;6.75;;;15.20;99.90;;;;;;5072474;28;20120;-66
2022/07/24 04:43:12;;;;;;;12.85;6.60;;;15.30;99.90;;;;;;5072514;28;20044;-66
2022/07/24 04:45:37;;;;;;;7.88;6.22;;;15.30;99.90;;;;;;5072517;28;20560;-66
2022/07/24 04:48:03;;;;;;;9.27;6.22;;;15.30;99.90;;;;;;5071658;28;20398;-66
2022/07/24 04:50:29;;;;;;;11.93;6.93;;;15.30;99.90;;;;;;5071801;28;20043;-66
2022/07/24 04:52:55;;;;;;;10.43;6.18;;;15.40;99.90;;;;;;5072124;28;20040;-66
2022/07/24 04:55:20;;;;;;;7.43;5.78;;;15.50;99.90;;;;;;5054167;28;20047;-66
2022/07/24 04:57:46;;;;;;;8.77;6.93;;;15.40;99.90;;;;;;5072248;28;20425;-66
2022/07/24 05:00:13;;;;;;;11.52;6.97;;;15.40;99.90;;;;;;5071862;28;20049;-66
2022/07/24 05:02:39;;;;;;;8.95;6.13;;;15.40;99.90;;;;;;5072286;28;20045;-66
2022/07/24 05:05:05;;;;;;;11.38;6.63;;;15.50;99.90;;;;;;5054080;28;20048;-66
2022/07/24 05:07:31;;;;;;;7.57;6.38;;;15.60;99.90;;;;;;5071847;28;20040;-66
2022/07/24 05:09:57;;;;;;;10.07;7.75;;;15.70;99.90;;;;;;5071832;28;20410;-67
2022/07/24 05:12:23;;;;;;;11.40;7.25;;;15.70;99.90;;;;;;5071830;28;20502;-66
2022/07/24 05:14:49;;;;;;;9.65;6.78;;;15.70;99.90;;;;;;5071945;28;20090;-66
2022/07/24 05:17:14;;;;;;;9.48;6.90;;;15.90;99.90;;;;;;5071932;28;20036;-66
2022/07/24 05:19:40;;;;;;;7.70;6.78;;;15.90;99.90;;;;;;5071538;28;20045;-66
2022/07/24 05:22:06;;;;;;;9.45;5.88;;;16.10;99.90;;;;;;5071693;28;20036;-66
2022/07/24 05:24:31;;;;;;;9.02;7.15;;;16.30;99.90;;;;;;5053768;28;20037;-66
2022/07/24 05:26:57;;;;;;;10.40;6.30;;;16.60;99.90;;;;;;5071831;28;20063;-66
2022/07/24 05:29:23;;;;;;;9.82;5.95;;;16.80;99.90;;;;;;5071345;28;20497;-66
2022/07/24 05:31:49;;;;;;;8.70;7.00;;;16.80;99.90;;;;;;5071749;28;20036;-66
2022/07/24 05:34:14;;;;;;;7.20;5.63;;;16.80;99.90;;;;;;5071600;28;20056;-66
2022/07/24 05:36:40;;;;;;;10.93;6.22;;;17.10;99.90;;;;;;5071555;28;20514;-66
2022/07/24 05:39:06;;;;;;;8.55;6.07;;;17.30;99.90;;;;;;5071523;28;20127;-66
2022/07/24 05:41:31;;;;;;;8.77;6.22;;;17.70;99.90;;;;;;5053572;28;20036;-66
2022/07/24 05:43:57;;;;;;;10.25;6.75;;;18.00;99.90;;;;;;5101379;22;20466;-69
2022/07/24 05:46:22;;;;;;;6.47;5.85;;;18.30;99.90;;;;;;5091531;28;20043;-69
2022/07/24 05:48:48;;;;;;;7.75;5.78;;;18.70;99.90;;;;;;5091493;28;20040;-69
2022/07/24 05:51:14;;;;;;;7.97;6.22;;;18.80;99.90;;;;;;5090797;28;20440;-69
2022/07/24 05:53:39;;;;;;;10.93;6.13;;;19.10;99.90;;;;;;5091654;28;20482;-69
2022/07/24 05:56:05;;;;;;;8.52;6.20;;;19.10;99.90;;;;;;5091681;28;20497;-69
2022/07/24 05:58:31;;;;;;;7.53;6.47;;;19.10;99.90;;;;;;5073465;28;20511;-69
2022/07/24 06:00:56;;;;;;;9.82;6.20;;;18.90;99.90;;;;;;5094145;28;20036;-69
2022/07/24 06:03:22;;;;;;;8.80;6.45;;;18.80;99.90;;;;;;5095463;28;20032;-69
2022/07/24 06:05:47;;;;;;;10.35;5.97;;;18.80;99.90;;;;;;5095499;28;20554;-69
2022/07/24 06:08:13;;;;;;;9.98;6.70;;;18.70;99.90;;;;;;5095665;28;20101;-69
2022/07/24 06:10:39;;;;;;;9.02;6.18;;;18.60;99.90;;;;;;5095378;28;20039;-69
2022/07/24 06:13:04;;;;;;;9.60;6.22;;;18.90;99.90;;;;;;5095391;28;20036;-68
2022/07/24 06:15:30;;;;;;;8.05;6.28;;;19.40;99.90;;;;;;5095324;28;20089;-69
2022/07/24 06:17:56;;;;;;;8.68;6.38;;;19.70;99.90;;;;;;5095410;28;20048;-69
2022/07/24 06:20:21;;;;;;;7.68;6.28;;;20.10;99.90;;;;;;5094940;28;20044;-69
2022/07/24 06:22:47;;;;;;;6.32;5.47;;;20.60;99.90;;;;;;5095251;28;20044;-69
2022/07/24 06:25:14;;;;;;;8.73;6.90;;;20.90;99.90;;;;;;5095321;28;20413;-69
2022/07/24 06:27:45;;;;;;;6.30;5.70;;;21.20;99.90;;;;;;5095257;28;20343;-69
2022/07/24 06:30:15;;;;;;;8.23;5.95;;;21.50;99.90;;;;;;5094812;28;20032;-70
2022/07/24 06:32:41;;;;;;;8.90;6.78;;;21.90;99.90;;;;;;5095050;28;20047;-69
2022/07/24 06:35:07;;;;;;;7.43;6.70;;;22.00;99.90;;;;;;5094791;28;20401;-69
2022/07/24 06:37:33;;;;;;;10.25;6.75;;;21.90;99.90;;;;;;5095164;28;20135;-69
2022/07/24 06:39:59;;;;;;;7.82;6.80;;;21.80;99.90;;;;;;5094769;28;20036;-69
2022/07/24 06:42:24;;;;;;;10.45;6.72;;;22.00;99.90;;;;;;5094928;28;20399;-68
2022/07/24 06:44:50;;;;;;;9.60;6.70;;;22.30;99.90;;;;;;5094618;28;20529;-68
2022/07/24 06:47:15;;;;;;;9.90;7.93;;;22.30;99.90;;;;;;5094637;28;20410;-68
2022/07/24 06:49:41;;;;;;;9.07;7.30;;;22.40;99.90;;;;;;5094375;28;20405;-69
2022/07/24 06:52:06;;;;;;;9.52;7.20;;;22.60;99.90;;;;;;5094923;28;20549;-69
2022/07/24 06:54:32;;;;;;;13.77;7.88;;;22.90;99.90;;;;;;5094736;28;20211;-69
2022/07/24 06:56:57;;;;;;;8.52;7.20;;;23.20;99.80;;;;;;5094579;28;20405;-69
2022/07/24 06:59:23;;;;;;;9.20;8.02;;;23.40;98.90;;;;;;5094289;28;20127;-69
2022/07/24 07:01:48;;;;;;;13.65;9.27;;;23.70;98.30;;;;;;5094473;28;20497;-69
2022/07/24 07:04:14;;;;;;;10.75;8.40;;;23.70;97.50;;;;;;5094260;28;20088;-69
2022/07/24 07:06:40;;;;;;;11.65;9.32;;;23.90;96.60;;;;;;5094526;28;20043;-69
2022/07/24 07:09:05;;;;;;;12.63;9.95;;;23.90;95.70;;;;;;5094209;28;20127;-69
2022/07/24 07:11:31;;;;;;;14.60;9.73;;;24.20;95.10;;;;;;5093357;28;20135;-69
2022/07/24 07:13:59;;;;;;;10.63;9.00;;;24.20;94.20;;;;;;5094233;28;20486;-69
2022/07/24 07:16:25;;;;;;;12.48;9.57;;;24.40;93.90;;;;;;5094434;28;20123;-69
2022/07/24 07:18:50;;;;;;;12.73;9.63;;;24.40;93.40;;;;;;5094256;28;20174;-69
2022/07/24 07:21:16;;;;;;;11.93;9.35;;;24.40;92.70;;;;;;5086407;28;20044;-70
2022/07/24 07:23:42;;;;;;;10.82;8.68;;;24.60;92.80;;;;;;5073879;28;20033;-70
2022/07/24 07:26:07;;;;;;;9.63;8.60;;;24.40;92.50;;;;;;5073878;28;20059;-70
2022/07/24 07:28:33;;;;;;;11.57;8.77;;;24.60;92.20;;;;;;5073767;28;20131;-69
2022/07/24 07:30:58;;;;;;;10.93;8.63;;;24.70;91.90;;;;;;5073585;28;20037;-71
2022/07/24 07:33:26;;;;;;;10.63;8.38;;;25.00;91.80;;;;;;5075690;28;20118;-70
2022/07/24 07:35:52;;;;;;;12.57;9.20;;;25.40;91.60;;;;;;5063745;28;20033;-71
2022/07/24 07:38:17;;;;;;;16.02;10.38;;;25.60;91.10;;;;;;5057844;28;20430;-71
2022/07/24 07:40:43;;;;;;;11.85;10.65;;;25.60;90.70;;;;;;5073228;28;20379;-70
2022/07/24 07:43:09;;;;;;;14.25;10.15;;;25.60;90.50;;;;;;5073312;28;20037;-71
2022/07/24 07:45:34;;;;;;;15.68;10.63;;;25.50;88.50;;;;;;5055598;28;20036;-70
2022/07/24 07:48:00;;;;;;;10.35;8.68;;;25.70;88.50;;;;;;5073283;28;20049;-71
2022/07/24 07:50:26;;;;;;;13.00;9.73;;;25.80;88.80;;;;;;5087459;28;20083;-69
2022/07/24 07:52:51;;;;;;;13.32;9.57;;;25.90;87.60;;;;;;5093681;28;20538;-69
2022/07/24 07:55:17;;;;;;;14.15;9.45;;;26.30;87.70;;;;;;5093759;28;20062;-69
2022/07/24 07:57:43;;;;;;;12.20;9.15;;;26.10;86.30;;;;;;5093501;28;20466;-69
2022/07/24 08:00:11;;;;;;;12.75;9.88;;;25.60;84.90;;;;;;5068867;28;20077;-69
2022/07/24 08:02:36;;;;;;;13.88;10.02;;;24.80;84.60;;;;;;5088684;28;20126;-71
2022/07/24 08:05:02;;;;;;;12.30;8.60;;;24.60;88.60;;;;;;5078841;28;20116;-70
2022/07/24 08:07:27;;;;;;;12.85;8.63;;;24.30;89.20;;;;;;5088725;28;20046;-70
2022/07/24 08:09:53;;;;;;;12.93;8.98;;;24.30;90.20;;;;;;5082665;28;20412;-69
2022/07/24 08:12:19;;;;;;;12.65;9.00;;;24.00;91.00;;;;;;5074476;28;20036;-70
2022/07/24 08:14:44;;;;;;;10.18;7.88;;;23.80;92.20;;;;;;5074852;28;20123;-69
2022/07/24 08:17:13;;;;;;;10.10;6.93;;;24.20;93.10;;;;;;5060579;28;20660;-70
2022/07/24 08:19:38;;;;;;;9.88;6.28;;;24.60;91.10;;;;;;5078656;28;20476;-70
2022/07/24 08:22:04;;;;;;;10.25;7.32;;;25.10;90.20;;;;;;5092669;28;20039;-71
2022/07/24 08:24:32;;;;;;;6.38;5.15;;;25.60;90.20;;;;;;5074372;28;20036;-70
2022/07/24 08:26:58;;;;;;;5.57;4.18;;;25.80;85.00;;;;;;5092609;28;20067;-70
2022/07/24 08:29:25;;;;;;;4.20;3.03;;;25.70;80.00;;;;;;5092065;28;20446;-70
2022/07/24 08:31:51;;;;;;;3.85;3.03;;;26.00;79.10;;;;;;5074514;28;20136;-70
2022/07/24 08:34:16;;;;;;;6.22;3.13;;;26.20;79.30;;;;;;5078017;28;20083;-70
2022/07/24 08:36:45;;;;;;;6.55;3.20;;;26.10;75.60;;;;;;5092551;28;20032;-70
2022/07/24 08:39:15;;;;;;;3.55;3.13;;;25.80;74.80;;;;;;5074015;28;20513;-70
2022/07/24 08:41:41;;;;;;;2.92;2.47;;;25.60;75.40;;;;;;5092177;28;20054;-70
2022/07/24 08:44:07;;;;;;;4.85;3.10;;;25.60;77.10;;;;;;5092022;28;20040;-71
2022/07/24 08:46:36;;;;;;;7.38;3.22;;;25.50;76.80;;;;;;5092006;28;20119;-70
2022/07/24 08:49:02;;;;;;;5.25;2.90;;;25.60;78.00;;;;;;5092268;28;20076;-70
2022/07/24 08:51:35;;;;;;;5.55;2.97;;;25.50;78.40;;;;;;5091935;28;20075;-70
2022/07/24 08:54:02;;;;;;;;;;;25.50;77.80;;;;;;5092562;28;20036;-70
2022/07/24 08:56:28;;;;;;;3.80;2.90;;;25.20;78.70;;;;;;5073692;28;19916;-70
2022/07/24 08:58:54;;;;;;;5.63;3.42;;;25.10;81.40;;;;;;5092121;28;20035;-70
2022/07/24 09:01:19;;;;;;;4.15;3.17;;;25.10;82.10;;;;;;5092160;28;20463;-70
2022/07/24 09:03:46;;;;;;;3.80;3.38;;;25.10;81.90;;;;;;5092277;28;20060;-70
2022/07/24 09:06:13;;;;;;;5.43;3.30;;;24.70;81.60;;;;;;5092281;28;20039;-69
2022/07/24 09:08:55;;;;;;;4.72;3.50;;;24.80;81.40;;;;;;5087125;28;20045;-70
2022/07/24 09:11:21;;;;;;;4.75;3.50;;;24.80;81.10;;;;;;5080344;28;20047;-69
2022/07/24 09:16:36;;;;;;;4.03;3.38;;;25.00;82.70;;;;;;5082446;28;20048;-69
2022/07/24 09:19:07;;;;;;;3.42;2.88;;;25.40;81.20;;;;;;5066017;28;20524;-70
2022/07/24 09:21:38;;;;;;;4.28;3.35;;;25.60;80.70;;;;;;5091768;28;20432;-70
2022/07/24 09:24:12;;;;;;;4.55;3.72;;;25.50;78.30;;;;;;5082557;28;20070;-70
2022/07/24 09:26:52;;;;;;;4.13;2.92;;;25.40;79.50;;;;;;5079225;28;20044;-70
2022/07/24 09:29:19;;;;;;;4.82;3.13;;;25.30;81.40;;;;;;5065550;28;20076;-71
2022/07/24 09:31:56;;;;;;;4.80;3.83;;;25.20;81.20;;;;;;5071313;28;20032;-70
2022/07/24 09:34:23;;;;;;;5.43;3.17;;;25.10;80.30;;;;;;5088874;28;20043;-70
2022/07/24 09:37:04;;;;;;;5.40;3.45;;;24.80;81.00;;;;;;5077198;28;20511;-70
2022/07/24 09:39:33;;;;;;;5.78;3.55;;;25.00;81.20;;;;;;5073214;28;20039;-70
2022/07/24 09:42:00;;;;;;;4.35;2.80;;;25.20;80.70;;;;;;5073306;28;20032;-71
2022/07/24 09:44:25;;;;;;;5.75;3.15;;;25.50;79.80;;;;;;5081924;28;20120;-70
2022/07/24 09:46:56;;;;;;;3.80;3.33;;;25.60;79.90;;;;;;5068988;28;20465;-71
2022/07/24 09:49:24;;;;;;;5.00;3.38;;;25.70;78.00;;;;;;5091876;28;20079;-71
2022/07/24 09:52:04;;;;;;;5.97;3.22;;;25.80;78.30;;;;;;5093201;28;20048;-71
2022/07/24 09:54:35;;;;;;;5.68;3.00;;;26.00;77.60;;;;;;5073981;28;20051;-71
2022/07/24 09:57:30;;;;;;;7.03;2.85;;;26.10;78.10;;;;;;5091233;28;20055;-71
2022/07/24 09:59:57;;;;;;;7.13;3.28;;;26.00;76.60;;;;;;5069787;28;20405;-71
2022/07/24 10:02:31;;;;;;;3.58;3.17;;;26.10;77.70;;;;;;5077051;28;20047;-71
2022/07/24 10:05:00;;;;;;;4.43;2.85;;;26.20;77.10;;;;;;5091144;28;20075;-71
2022/07/24 10:07:27;;;;;;;4.85;3.17;;;26.30;77.20;;;;;;5091022;28;20048;-71
2022/07/24 10:09:55;;;;;;;4.88;2.78;;;26.50;78.60;;;;;;5072672;28;20485;-72
2022/07/24 10:12:23;;;;;;;4.07;3.17;;;26.60;77.40;;;;;;5090979;28;20554;-71
2022/07/24 10:14:51;;;;;;;3.63;2.83;;;26.60;77.10;;;;;;5091155;28;20032;-71
2022/07/24 10:17:18;;;;;;;4.85;3.00;;;26.60;78.00;;;;;;5091210;28;20089;-71
2022/07/24 10:19:51;;;;;;;6.35;3.45;;;26.50;76.50;;;;;;5090714;28;20051;-69
2022/07/24 10:22:21;;;;;;;6.88;2.90;;;26.50;76.90;;;;;;5091075;28;20051;-70
2022/07/24 10:24:53;;;;;;;5.50;3.03;;;26.60;76.60;;;;;;5091048;28;20047;-69
2022/07/24 10:27:35;;;;;;;4.13;2.60;;;26.70;75.70;;;;;;5091058;28;20043;-70
2022/07/24 10:30:10;;;;;;;4.90;2.53;;;26.70;74.90;;;;;;5090712;28;20345;-69
2022/07/24 10:32:38;;;;;;;4.93;3.83;;;26.50;73.00;;;;;;5090873;28;20037;-70
2022/07/24 10:35:09;;;;;;;3.92;2.92;;;26.50;73.40;;;;;;5086096;28;20089;-69
2022/07/24 10:37:39;;;;;;;4.13;2.80;;;26.50;73.30;;;;;;5082462;28;20044;-69
2022/07/24 10:40:27;;;;;;;4.30;3.22;;;26.50;75.50;;;;;;5090572;28;20036;-70
2022/07/24 10:43:05;;;;;;;3.72;2.85;;;26.70;76.30;;;;;;5082460;28;20032;-69
2022/07/24 10:45:31;;;;;;;4.07;2.70;;;27.00;77.50;;;;;;5078516;28;20036;-70
2022/07/24 10:47:57;;;;;;;3.85;2.53;;;26.80;74.80;;;;;;5081406;28;20493;-70
2022/07/24 10:50:23;;;;;;;4.28;3.05;;;26.70;74.80;;;;;;5085532;28;20055;-69
2022/07/24 10:52:49;;;;;;;4.13;2.83;;;26.60;75.60;;;;;;5086511;28;20036;-69
2022/07/24 10:55:32;;;;;;;4.88;2.92;;;26.50;76.60;;;;;;5085887;28;20036;-70
2022/07/24 10:58:01;;;;;;;6.40;2.38;;;26.50;75.80;;;;;;5085130;28;20075;-70
2022/07/24 11:00:34;;;;;;;5.53;2.83;;;26.50;75.70;;;;;;5063842;28;20053;-70
2022/07/24 11:03:05;;;;;;;6.93;3.20;;;26.40;77.50;;;;;;5074282;28;20036;-71
2022/07/24 11:05:36;;;;;;;3.90;3.10;;;26.40;75.70;;;;;;5074268;28;20032;-71
2022/07/24 11:08:18;;;;;;;3.90;3.03;;;26.40;76.20;;;;;;5073945;28;20048;-71
2022/07/24 11:10:54;;;;;;;5.22;2.88;;;26.50;75.50;;;;;;5073994;28;20040;-71
2022/07/24 11:13:32;;;;;;;5.38;2.70;;;26.70;78.10;;;;;;5056246;28;20044;-71
2022/07/24 11:16:10;;;;;;;5.80;2.85;;;26.70;75.30;;;;;;5056058;28;20115;-71
2022/07/24 11:18:57;;;;;;;4.70;2.85;;;26.80;76.60;;;;;;5073861;28;20043;-71
2022/07/24 11:21:36;;;;;;;3.60;2.70;;;26.80;74.50;;;;;;5023138;28;20091;-70
2022/07/24 11:24:21;;;;;;;4.03;2.63;;;26.70;75.20;;;;;;5073908;28;20051;-71
2022/07/24 11:26:48;;;;;;;5.75;2.60;;;26.80;74.90;;;;;;5073756;28;20036;-71
2022/07/24 11:29:19;;;;;;;2.78;2.40;;;26.80;75.80;;;;;;5073601;28;20059;-71
2022/07/24 11:31:48;;;;;;;3.30;2.15;;;26.80;77.80;;;;;;5055789;28;20036;-71
2022/07/24 11:34:16;;;;;;;3.10;2.55;;;26.80;77.00;;;;;;5056007;28;20060;-72
2022/07/24 11:36:47;;;;;;;7.78;3.10;;;26.80;74.80;;;;;;5073699;28;20438;-70
2022/07/24 11:39:14;;;;;;;3.95;2.67;;;26.70;73.80;;;;;;5055416;28;20040;-71
2022/07/24 11:41:48;;;;;;;3.08;2.45;;;26.70;74.00;;;;;;5055796;28;20045;-71
2022/07/24 11:44:21;;;;;;;3.13;2.40;;;26.80;76.20;;;;;;5109445;23;20040;-75
2022/07/24 11:46:46;;;;;;;;;;;26.80;74.90;;;;;;5112729;28;20032;-74
2022/07/24 11:49:12;;;;;;;2.80;2.17;;;26.80;75.60;;;;;;5112845;28;19924;-74
2022/07/24 11:51:46;;;;;;;3.97;2.92;;;27.00;75.50;;;;;;5113450;28;20039;-73
2022/07/24 11:54:13;;;;;;;5.50;3.38;;;27.00;74.10;;;;;;5105368;28;20028;-75
2022/07/24 11:56:39;;;;;;;3.50;2.53;;;26.80;71.90;;;;;;5092306;28;20044;-72
2022/07/24 11:59:04;;;;;;;3.65;2.42;;;26.80;73.80;;;;;;5093287;28;20137;-72
2022/07/24 12:01:30;;;;;;;3.75;2.70;;;26.80;73.80;;;;;;5091889;28;20040;-73
2022/07/24 12:03:59;;;;;;;6.72;3.35;;;26.70;72.20;;;;;;5092265;28;20138;-73
2022/07/24 12:06:28;;;;;;;3.20;2.58;;;26.80;74.20;;;;;;5092234;28;20273;-73
2022/07/24 12:09:07;;;;;;;3.35;2.97;;;26.90;73.40;;;;;;5091902;28;20048;-73
2022/07/24 12:11:35;;;;;;;3.33;2.75;;;27.00;75.10;;;;;;5092005;28;20047;-74
2022/07/24 12:14:04;;;;;;;4.82;2.85;;;27.00;73.80;;;;;;5093163;28;20035;-73
2022/07/24 12:16:29;;;;;;;3.90;2.80;;;26.80;71.80;;;;;;5093148;28;20048;-75
2022/07/24 12:19:15;;;;;;;4.05;2.38;;;26.80;71.60;;;;;;5092947;28;20132;-73
2022/07/24 12:21:42;;;;;;;3.88;2.50;;;26.90;73.40;;;;;;5091814;28;20051;-74
2022/07/24 12:24:08;;;;;;;4.55;2.63;;;26.90;72.00;;;;;;5092940;28;20036;-74
2022/07/24 12:26:33;;;;;;;4.45;3.03;;;26.90;72.50;;;;;;5093061;28;20113;-74
2022/07/24 12:29:10;;;;;;;4.05;2.78;;;27.10;72.40;;;;;;5091489;28;20507;-74
2022/07/24 12:31:35;;;;;;;5.60;2.45;;;27.20;72.40;;;;;;5091362;28;20090;-74
2022/07/24 12:34:01;;;;;;;4.72;2.80;;;27.10;70.80;;;;;;5091725;28;20044;-74
2022/07/24 12:36:27;;;;;;;3.80;2.85;;;27.10;70.70;;;;;;5091386;28;20036;-74
2022/07/24 12:38:55;;;;;;;5.63;2.75;;;27.20;71.50;;;;;;5092657;28;20090;-74
2022/07/24 12:41:22;;;;;;;5.47;2.53;;;27.20;70.40;;;;;;5091361;28;20442;-74
2022/07/24 12:43:53;;;;;;;5.05;2.85;;;27.30;70.90;;;;;;5092395;28;20111;-74
2022/07/24 12:46:22;;;;;;;6.25;2.53;;;27.30;70.60;;;;;;5091603;28;20035;-74
2022/07/24 12:49:04;;;;;;;2.75;2.45;;;27.20;69.40;;;;;;5074329;28;20497;-74